LiveATC.Net - Listen to live air traffic control over the Internet!

Airport/ARTCC Code
Frequency Search
(e.g., 124.400, 128.75)
Site-wide search
 


Browse Feeds
Top 50 Feeds
Coverage Map
Bad Weather Areas

LiveATC FAQ
Offer LiveATC feed
Contact LiveATC.net
Press Inquiries

LiveATC on iPhone
LiveATC on Android

Windows Phone
Windows 8/10

LiveATC Mobile
(Mobile browser)

ATC Audio Archives
Interesting Recordings

LiveATC Forums

Home Page
About LiveATC.net
Make a Donation
Terms of Use
Privacy Policy

Canadian Air Freqs

AIRMETs/SIGMETs

FAA Airport Status
Nat'l Airspace Status
Arrival Demand Charts


Server Software By:
Icecast.org
Liquidsoap


Current Potentially Bad Weather Airports
(updated every 30 minutes - sorted alphabetically by ICAO code)



This page lists LiveATC.net airport areas that may be interesting to listen to because of challenging flying (weather) conditions. Challenging weather conditions include low ceilings, limited visibility, high or gusty winds, or thunderstorms.

Updated: Wed Jan 20 16:10:01 UTC 2021
Click on airport name to go to that airport area's feeds.

CYFB CTAF/RDO Iqaluit Airport (Iqaluit, CA-NU)
WX MAP UNAVAILABLENearest METAR:
CYFB 201549Z 33017KT 30SM -SN DRSN BKN032 M14/M18 A2992 RMK SC7 SLP135
CYQB App/Dep (Terminal/124.0) Quebec Jean Lesage International Airport (Quebec, CA-QC)
cyqbNearest METAR:
CYQB 201500Z 00000KT 1 1/2SM -SN BKN015 OVC023 M10/M12 A2989 RMK SC6SC2 SLP128
CYQT Ground/Tower Thunder Bay Airport (Thunder Bay, CA-ON)
cyqtNearest METAR:
CYQT 201553Z VRB02KT 10SM -SN BKN024 M14/M16 A2966 RMK SC8 SLP063
CYSC AWOS Sherbrooke Airport (Sherbrooke, CA-QC)
WX MAP UNAVAILABLENearest METAR:
CYSC 201531Z AUTO 29007KT 9SM -SN BKN014 BKN046 M07/M09 A2981 RMK SLP115
CYWG Del/Gnd/Twr Winnipeg James Armstrong Richardson International Airport (Winnipeg, CA-MB)
WX MAP UNAVAILABLENearest METAR:
CYWG 201531Z 24013KT 3SM -SN DRSN OVC024 M01/M04 A2915 RMK SC8 SLP890
CYXE Terminal (App/Dep) John G. Diefenbaker International Airport (Saskatoon, CA-SK)
WX MAP UNAVAILABLENearest METAR:
CYXE 201500Z 29029G36KT 15SM FEW150 BKN250 M02/M07 A2943 RMK AC2CI4 SLP993
EFKU Tower/Approach Kuopio Airport (Siilinjarvi, Finland)
WX MAP UNAVAILABLENearest METAR:
EFKU 201550Z AUTO 09007KT 9999 -SN OVC010 M07/M08 Q1010
ENAT Twr/App/Control Alta Airport (Alta, Norway)
WX MAP UNAVAILABLENearest METAR:
ENAT 201550Z 21003KT 9999 -SN FEW008 SCT022 BKN049 M15/M17 Q1018 RMK WIND 700FT 17005KT
ENGM Tower Oslo Gardermoen Airport (Oslo, Norway)
WX MAP UNAVAILABLENearest METAR:
ENGM 201550Z 04006KT 6000 -SN FEW006 BKN008 00/M00 Q0988 TEMPO 4000 -SN
ENOR Sector 8 Moss Airport - Rygge (Moss, Norway)
WX MAP UNAVAILABLENearest METAR:
ENRY 201550Z 07009KT 9999 OVC007 01/00 Q0987 REDZ
ENTO Tower/App Sandefjord Airport - Torp (Sandefjord, Norway)
WX MAP UNAVAILABLENearest METAR:
ENTO 201550Z 02006KT 360V050 4000 -DZ OVC003 00/00 Q0986 TEMPO 2500 -RASN BR
EPGD Tower/Approach Gdansk Lech Walesa Airport (Gdansk, Poland)
WX MAP UNAVAILABLENearest METAR:
EPGD 201530Z 22010KT 9999 OVC006 02/01 Q1000 R11/290095
ESDF Ronneby Control Ronneby Airport (Ronneby, Sweden)
WX MAP UNAVAILABLENearest METAR:
ESDF 201550Z 21009KT 6000 RA OVC003 05/05 Q0995
ESMS Tower Malmo Airport (Svedala, Sweden)
WX MAP UNAVAILABLENearest METAR:
ESMS 201550Z 21015KT 7000 -RA OVC005 05/04 Q0994 R17/29//95
ESOE Tower/Control Orebro Airport (Orebro, Sweden)
WX MAP UNAVAILABLENearest METAR:
ESOE 201550Z 09010KT 3000 -SN VV004 01/01 Q0992
ESOW Twr/CTAF/Control Stockholm Vasteras Airport (Stockholm, Sweden)
WX MAP UNAVAILABLENearest METAR:
ESOW 201550Z 09009KT 040V120 2500 -SN VV007 01/M00 Q0995
ESSL Twr/App/Control Linkoping City (Saab) Airport (Linkoping, Sweden)
WX MAP UNAVAILABLENearest METAR:
ESSL 201550Z 13008KT 9000 -SN BKN004 01/00 Q0992 R11/29//76
EVRA Tower/Guard Riga International Airport (Riga, Latvia)
WX MAP UNAVAILABLENearest METAR:
EVRA 201550Z 14012KT 9999 -SN FEW018 SCT030 M06/M08 Q1006 R18/410295 NOSIG
KABQ Twr/App/ZAB Albuquerque International Sunport Airport (Albuquerque, US-NM)
kabqNearest METAR:
KABQ 201552Z 32004KT 7SM -SN FEW045 BKN060 OVC075 M02/M06 A3034 RMK AO2 SNB20 SLP292 MTNS OBSC NE AND SE SHSN DSNT NE AND SE-SW P0000 T10171056
KALB Approach/Departure Albany International Airport (Albany, US-NY)
kalbNearest METAR:
KALB 201551Z 29008G16KT 8SM -SN FEW016 BKN026 BKN041 BKN250 M02/M05 A2989 RMK AO2 SNB29 SLP124 P0000 T10221050
KAVP Gnd/Twr/App Wilkes-Barre/Scranton International Airport (Wilkes-Barre/Scranton, US-PA)
kavpNearest METAR:
KAVP 201554Z AUTO 33015G20KT 1 3/4SM R04/4000VP6000FT -SN SCT021 BKN028 OVC035 M02/M06 A2995 RMK AO2 SNB49 SLP150 P0000 T10171056
MA/NH/RI/CT Area CTAF Fitchburg Municipal Airport (Fitchburg, US-MA)
kpymNearest METAR:
KPYM 201552Z AUTO 28005KT 4SM -SN BR SCT012 BKN027 OVC035 01/M02 A2982 RMK AO2 SNB06 SLP099 P0000 T00061017
KBTV Del/Gnd/Twr/App Burlington International Airport (Burlington, US-VT)
kbtvNearest METAR:
KBTV 201554Z 35007KT 1 1/4SM -SN BR SCT009 OVC017 M04/M06 A2988 RMK AO2 SLP122 SNINCR 1/10 P0002 T10391061
KBUF Twr/App/Dep Buffalo Niagara International Airport (Buffalo, US-NY)
kbufNearest METAR:
KBUF 201554Z 29012KT 9SM -SN BKN027 OVC060 M04/M11 A3008 RMK AO2 SLP198 P0000 T10441106
KCAK Del/Gnd/Twr/App Akron-Canton Regional Airport (Akron, US-OH)
kcakNearest METAR:
KCAK 201551Z 28008KT 6SM -SN FEW018 OVC029 M04/M09 A3019 RMK AO2 SNB18 SLP239 P0000 T10441094
KCFD CTAF/App Coulter Field Airport (Bryan, US-TX)
kcfdNearest METAR:
KCFD 201555Z AUTO 03005KT 4SM BR OVC003 10/10 A3036 RMK AO2 T01000100
KCKB App/Dep North Central West Virginia Airport (Clarksburg, US-WV)
kckbNearest METAR:
KCKB 201555Z 30015G23KT 2SM -SN SCT021 BKN025 OVC060 M01/M04 A3018 RMK AO2 P0000 T10111044
KCLE Approach Cleveland-Hopkins International Airport (Cleveland, US-OH)
kcleNearest METAR:
KCLE 201551Z 29009KT 9SM -SN BKN030 OVC035 M04/M10 A3021 RMK AO2 SNB08 SLP256 P0000 T10441100
KCMA Gnd/Twr/App Camarillo Airport (Camarillo, US-CA)
kcmaNearest METAR:
KCMA 201555Z 06024G33KT 10SM CLR 21/M03 A2998 RMK AO2 PK WND 07036/1540 SLP160 T02061033
KCPR Tower/App Casper/Natrona County International Airport (Casper, US-WY)
kcprNearest METAR:
KCPR 201553Z 20028G37KT 10SM CLR M02/M14 A2998 RMK AO2 PK WND 20041/1512 SLP181 T10171139
KCRP App/Dep Corpus Christi International Airport (Corpus Christi, US-TX)
WX MAP UNAVAILABLENearest METAR:
KCRP 201551Z 03009KT 4SM BR OVC005 16/14 A3029 RMK AO2 SLP256 VIS LWR N-NE T01560139
KCYS Gnd/Twr/App/Center Cheyenne Regional Airport/Jerry Olson Field (Cheyenne, US-WY)
kcysNearest METAR:
KCYS 201553Z 28032G47KT 10SM CLR 04/M11 A2993 RMK AO2 PK WND 28052/1517 SLP156 T00391106
KDAY Del/Gnd/Twr/App James M Cox Dayton International Airport (Dayton, US-OH)
kdayNearest METAR:
KDAY 201556Z 28007KT 8SM -SN OVC018 M02/M05 A3028 RMK AO2 SLP262 PCPN VRY LGT P0001 T10171050
KDOV ATIS Dover Air Force Base (Dover, US-DE)
kdovNearest METAR:
KDOV 201556Z AUTO 28023G32KT 10SM FEW043 06/M05 A2997 RMK AO2 SLP152 T00561048 $
KDTW Approach Detroit Metropolitan Wayne County Airport (Detroit, US-MI)
kdtwNearest METAR:
KDTW 201553Z 26007KT 9SM -SN OVC035 M04/M09 A3022 RMK AO2 SLP244 P0000 T10441094
Boston Approach (Cape North) Barnstable Municipal Airport-Boardman/Polando Field (Hyannis, US-MA)
kfmhNearest METAR:
KFMH 201556Z 32006KT 5SM -SN OVC008 00/M01 A2983
KFWA App/Dep Fort Wayne International Airport (Fort Wayne, US-IN)
kfwaNearest METAR:
KFWA 201554Z 25007KT 10SM -SN OVC029 M04/M08 A3026 RMK AO2 SNB03 SLP257 OVC V BKN P0000 T10391083 $
KGFK Approach Grand Forks International Airport (Grand Forks, US-ND)
kgfkNearest METAR:
KGFK 201553Z 28020G30KT 10SM SCT130 SCT250 03/M02 A2934 RMK AO2 PK WND 29030/1544 SLP950 T00331017
KGGG Gnd/Twr East Texas Regional Airport (Longview, US-TX)
kgggNearest METAR:
KGGG 201553Z 06005KT OVC005 09/07 A3037 RMK AO2 SLP285 T00890072 RVRNO $
KGRR Del/Gnd/Twr/App Gerald R. Ford International Airport (Grand Rapids, US-MI)
kgrrNearest METAR:
KGRR 201553Z 23009KT 9SM -SN OVC022 M06/M09 A3018 RMK AO2 SLP232 P0000 T10561089
KHIO Tower (Both) Portland-Hillsboro Airport (Portland, US-OR)
WX MAP UNAVAILABLENearest METAR:
KHIO 201553Z 00000KT 2 1/2SM BR FEW002 M02/M03 A3020 RMK AO2 SLP229 I1000 T10221028
KHOU Gnd/Twr/App William P Hobby Airport (Houston, US-TX)
khouNearest METAR:
KHOU 201553Z 09007KT 2 1/2SM BR OVC004 17/15 A3033 RMK AO2 SLP276 T01670150
KHTO CTAF/Tower East Hampton Airport (East Hampton, US-NY)
khtoNearest METAR:
KHTO 201535Z AUTO 28005KT 10SM -SN OVC007 01/00 A2985 RMK AO2 T00050000
ZDC Sectors 12/04 Leesburg Executive Airport (Leesburg, US-VA)
kjyoNearest METAR:
KJYO 201555Z AUTO 31017G27KT 7SM -SN SCT034 SCT042 OVC055 02/M01 A3009 RMK AO2
KIAH Tower George Bush Intercontinental/Houston Airport (Houston, US-TX)
kiahNearest METAR:
KIAH 201553Z 07006KT 5SM BR OVC007 16/13 A3034 RMK AO2 SLP273 T01560128
KLBE Ground/Tower Arnold Palmer Regional Airport (Latrobe, US-PA)
klbeNearest METAR:
KLBE 201547Z 31008G17KT 4SM -SN OVC025 M03/M06 A3013
KLBX CTAF Texas Gulf Coast Regional Airport (Angleton/Lake Jackson, US-TX)
klbxNearest METAR:
KLBX 201553Z AUTO 09007KT 1/4SM FG VV002 17/16 A3032 RMK AO2 SLP266 T01670161
KLRD Ground/Tower Laredo International Airport (Laredo, US-TX)
klrdNearest METAR:
KLRD 201556Z 32007KT 4SM BR OVC005 11/10 A3033 RMK AO2 CIG 004V009 SLP273 T01060100
KMDT App/Dep (East/West) Harrisburg International Airport (Harrisburg, US-PA)
kmdtNearest METAR:
KMDT 201556Z 32022G30KT 10SM SCT035 04/M07 A3002 RMK AO2 PK WND 29034/1545 SLP169 T00391067
KMMV CTAF Mc Minnville Municipal Airport (Mc Minnville, US-OR)
kmmvNearest METAR:
KMMV 201553Z AUTO 00000KT 1 1/4SM BR CLR M02/M02 A3020 RMK AO2 SLP228 I1000 T10171022
KMTN Ground/Misc Martin State Airport (Baltimore, US-MD)
kmtnNearest METAR:
KMTN 201554Z 29020G32KT 10SM SCT043 06/M05 A3003
KOWD Ground/Tower Norwood Municipal Airport (Norwood, US-MA)
kowdNearest METAR:
KOWD 201553Z 32006KT 7SM -SN BKN042 OVC050 02/M04 A2983 RMK AO2 SNB32 SLP102 P0000 T00221044
KPEO CTAF Penn Yan Airport (Penn Yan, US-NY)
kpeoNearest METAR:
KPEO 201553Z AUTO 29014G21KT 8SM -SN BKN028 OVC033 M04/M09 A3000 RMK AO2 SLP173 P0000 T10441094
KPSM Gnd/Twr/App/GCA Portsmouth International Airport at Pease (Portsmouth, US-NH)
kpsmNearest METAR:
KPSM 201556Z 30007KT 10SM BKN250 02/M09 A2980 RMK AO2A SLP095 T00161091 RVRNO $
KPTK App/Dep Oakland County International Airport (Pontiac, US-MI)
kptkNearest METAR:
KPTK 201553Z 26010KT 8SM -SN BKN033 OVC050 M06/M11 A3017 RMK AO2 SLP231 P0000 T10611111
KRAS CTAF Mustang Beach Airport (Port Aransas, US-TX)
WX MAP UNAVAILABLENearest METAR:
KRAS 201555Z AUTO 04009KT 5SM HZ OVC003 A3031 RMK AO2
KSAT Tower San Antonio International Airport (San Antonio, US-TX)
ksatNearest METAR:
KSAT 201551Z 01009KT 10SM OVC009 09/07 A3033 RMK AO2 RAE35 SLP263 P0000 T00940067
KSGR Ground/Tower Sugar Land Regional Airport (Houston, US-TX)
ksgrNearest METAR:
KSGR 201553Z 04006KT 5SM HZ OVC007 17/14 A3033 RMK AO2 SLP272 T01720144
KSJT Tower/Approach San Angelo Regional Airport/Mathis Field (San Angelo, US-TX)
ksjtNearest METAR:
KSJT 201551Z 04003KT 8SM OVC006 04/03 A3035 RMK AO2 RAE41 SLP282 P0002 T00440033
KSYR Tower/Approach Syracuse Hancock International Airport (Syracuse, US-NY)
ksyrNearest METAR:
KSYR 201554Z 29008KT 3SM R28/6000VP6000FT -SN BLSN BKN025 BKN035 OVC050 M03/M07 A2999 RMK AO2 SNE1456B34 SLP157 P0000 T10331067
KTAN CTAF Taunton Municipal Airport (Taunton, US-MA)
ktanNearest METAR:
KTAN 201552Z AUTO 00000KT 4SM -SN SCT009 BKN026 OVC065 01/M02 A2983 RMK AO2 SLP101 P0000 T00111017
KTCM Gnd/Twr/Misc McChord Field Airport (Joint Base Lewis-McChord) (Tacoma, US-WA)
WX MAP UNAVAILABLENearest METAR:
KTCM 201558Z 00000KT 1 1/4SM BR OVC002 02/02 A3020 RMK AO2A VIS 1/4V1 1/4 SLP233 T00200017 $
KTME Del/Gnd/Twr/App Houston Executive Airport (Houston, US-TX)
ktmeNearest METAR:
KTME 201555Z AUTO 10005KT 4SM BR OVC007 15/15 A3034 RMK AO2
KTVC Ground/Tower Cherry Capital Airport (Traverse City, US-MI)
ktvcNearest METAR:
KTVC 201553Z 23010KT 9SM -SN OVC020 M07/M11 A3009 RMK AO2 SLP202 P0000 T10671111
LFLL Tower Lyon-Saint-Exupery Airport (Lyon, France)
WX MAP UNAVAILABLENearest METAR:
LFLL 201530Z 16016G27KT 120V190 9999 SCT050 BKN150 BKN260 12/03 Q1006 TEMPO 18030G45KT
Lyon FIS Lyon-Saint-Exupery Airport (Lyon, France)
WX MAP UNAVAILABLENearest METAR:
LFLY 201530Z AUTO 18022G37KT 140V210 CAVOK 13/05 Q1005 TEMPO 18035G55KT
LRCL Twr/App #1 Cluj-Napoca International Airport (Cluj-Napoca, Romania)
WX MAP UNAVAILABLENearest METAR:
LRCL 201530Z VRB02KT 5000 BR OVC005 M00/M01 Q1020 R07/19//95
LZKZ Gnd/Twr/App Kosice International Airport (Kosice, Slovakia)
WX MAP UNAVAILABLENearest METAR:
LZKZ 201530Z 20003KT 0900 R01/P2000N FZFG OVC003 M01/M01 Q1017 TEMPO 1500 BR
MROC Del/Gnd/Twr/App/Center/Misc Juan Santamaria International Airport (San Jose, Costa Rica)
WX MAP UNAVAILABLENearest METAR:
MROC 201600Z 06029G39KT CAVOK 27/14 A2998 NOSIG
PABE ATIS Bethel Airport (Bethel, US-AK)
WX MAP UNAVAILABLENearest METAR:
PABE 201553Z 05006KT 1 1/2SM BR OVC005 M04/M05 A2968 RMK AO2 FZRAE1459 SLP055 P0001 I1003 T10441050
SBCT Gnd/Twr/App Afonso Pena Airport (Curitiba, Brazil)
WX MAP UNAVAILABLENearest METAR:
SBCT 201600Z 11009KT 9999 OVC009 21/19 Q1019
SJOY CTAF Jorge Luiz Stocco Airport (Palmeira, Brazil)
WX MAP UNAVAILABLENearest METAR:
AUTO METAR SJOY 201600Z 11005KT OVC005 19/19 Q1019
UAAA Tower/Approach Almaty International Airport (Almaty, Kazakhstan)
WX MAP UNAVAILABLENearest METAR:
UAAA 201548Z 22002MPS 0050 R23R/0250D R23L/0400N FZFG VV001 M01/M02 Q1021 R23R/3///50 R23L/3///40 NOSIG RMK QBB030
USTR Gnd/Twr/App Roshchino International Airport (Tyumen, Russia)
WX MAP UNAVAILABLENearest METAR:
USTR 201530Z 09003MPS 2500 -SHSN FEW010 OVC036CB M17/M20 Q1007 R03/451050 R12/////99 TEMPO 10013MPS 0400 +SHSN BLSN VV004